Time;durP1;ratioP1;P1;durP2;ratioP2;P2;SDS_P1;SDS_P2;PMS_P1;PMS_P2;Temp;Humidity;BMP_temperature;BMP_pressure;BME280_temperature;BME280_humidity;BME280_pressure;Samples;Min_cycle;Max_cycle;Signal;HPM_P1;HPM_P2
2023/01/11 00:00:17;;;;;;;6.35;5.03;;;1.20;99.90;;;;;;5013683;28;20227;-70
2023/01/11 00:02:44;;;;;;;7.70;5.32;;;1.20;99.90;;;;;;5013128;28;20242;-70
2023/01/11 00:05:10;;;;;;;5.80;4.72;;;1.20;99.90;;;;;;5021721;28;20192;-71
2023/01/11 00:07:37;;;;;;;5.80;5.25;;;1.10;99.90;;;;;;5015284;28;20599;-70
2023/01/11 00:10:03;;;;;;;7.40;4.82;;;1.10;99.90;;;;;;5013043;28;20258;-70
2023/01/11 00:12:30;;;;;;;8.60;4.97;;;1.20;99.90;;;;;;5016377;28;20208;-70
2023/01/11 00:14:56;;;;;;;6.70;4.47;;;1.10;99.90;;;;;;5013013;28;20235;-70
2023/01/11 00:17:21;;;;;;;7.28;4.90;;;1.20;99.90;;;;;;5012859;28;20208;-70
2023/01/11 00:19:47;;;;;;;4.93;4.38;;;1.20;99.90;;;;;;5018696;28;20379;-70
2023/01/11 00:22:13;;;;;;;5.40;4.32;;;1.30;99.90;;;;;;5012302;28;20212;-70
2023/01/11 00:24:38;;;;;;;6.55;4.90;;;1.30;99.90;;;;;;5016841;28;20177;-70
2023/01/11 00:27:04;;;;;;;6.55;4.57;;;1.30;99.90;;;;;;5016242;28;20181;-71
2023/01/11 00:29:29;;;;;;;6.35;5.10;;;1.40;99.90;;;;;;5017467;28;20240;-70
2023/01/11 00:31:55;;;;;;;5.90;4.43;;;1.30;99.90;;;;;;5015201;28;20552;-71
2023/01/11 00:34:20;;;;;;;4.15;3.80;;;1.30;99.90;;;;;;5016154;28;20227;-70
2023/01/11 00:36:46;;;;;;;5.68;5.03;;;1.30;99.90;;;;;;5018874;28;20189;-70
2023/01/11 00:39:11;;;;;;;7.45;5.32;;;1.30;99.90;;;;;;5010478;28;20181;-70
2023/01/11 00:50:01;;;;;;;5.13;4.18;;;1.40;99.90;;;;;;5009854;28;20196;-71
2023/01/11 00:52:26;;;;;;;5.45;4.47;;;1.50;99.90;;;;;;5014953;28;20197;-70
2023/01/11 00:54:52;;;;;;;5.78;4.60;;;1.60;99.90;;;;;;5017821;28;20181;-71
2023/01/11 00:57:18;;;;;;;4.95;4.45;;;1.60;99.90;;;;;;5013747;28;20231;-72
2023/01/11 00:59:44;;;;;;;8.30;5.72;;;1.60;99.90;;;;;;5012030;28;20193;-71
2023/01/11 01:02:10;;;;;;;7.47;4.38;;;1.70;99.90;;;;;;5012929;28;20200;-70
2023/01/11 01:04:37;;;;;;;5.65;4.95;;;1.70;99.90;;;;;;5019934;28;20192;-70
2023/01/11 01:07:03;;;;;;;6.13;4.32;;;1.80;99.90;;;;;;5015236;28;20193;-70
2023/01/11 01:09:28;;;;;;;6.70;4.90;;;1.70;99.90;;;;;;5012250;28;20183;-70
2023/01/11 01:11:54;;;;;;;6.78;5.25;;;1.70;99.90;;;;;;5013030;28;20205;-71
2023/01/11 01:14:29;;;;;;;6.03;4.82;;;1.60;99.90;;;;;;5012420;28;20533;-71
2023/01/11 01:17:01;;;;;;;4.88;4.47;;;1.70;99.90;;;;;;5021143;28;20234;-71
2023/01/11 01:19:28;;;;;;;5.55;4.70;;;1.70;99.90;;;;;;5015753;28;20177;-70
2023/01/11 01:21:56;;;;;;;7.03;4.68;;;1.70;99.90;;;;;;5010760;28;20204;-70
2023/01/11 01:24:22;;;;;;;6.72;4.82;;;1.70;99.90;;;;;;5016479;28;20276;-72
2023/01/11 01:26:48;;;;;;;5.88;4.35;;;1.60;99.90;;;;;;5022143;28;20176;-71
2023/01/11 01:29:14;;;;;;;7.60;4.93;;;1.60;99.90;;;;;;5014733;28;20243;-71
2023/01/11 01:31:41;;;;;;;6.63;4.68;;;1.50;99.90;;;;;;5023093;28;20177;-70
2023/01/11 01:34:07;;;;;;;6.32;4.90;;;1.50;99.90;;;;;;5011545;28;20181;-70
2023/01/11 01:36:33;;;;;;;5.15;4.65;;;1.50;99.90;;;;;;5013913;28;20177;-71
2023/01/11 01:38:59;;;;;;;7.88;4.88;;;1.60;99.90;;;;;;5013242;28;20223;-70
2023/01/11 01:41:25;;;;;;;7.50;4.90;;;1.70;99.90;;;;;;5010152;28;20181;-70
2023/01/11 01:43:55;;;;;;;6.20;4.60;;;1.70;99.90;;;;;;5013718;28;20204;-70
2023/01/11 01:46:25;;;;;;;8.02;4.97;;;1.70;99.90;;;;;;5010101;28;20192;-70
2023/01/11 01:49:05;;;;;;;6.68;4.68;;;1.70;99.90;;;;;;5010909;28;20182;-70
2023/01/11 01:51:37;;;;;;;7.53;4.15;;;1.70;99.90;;;;;;5017410;28;20176;-70
2023/01/11 01:54:08;;;;;;;4.70;3.70;;;1.80;99.90;;;;;;5016198;28;20196;-70
2023/01/11 01:56:44;;;;;;;6.13;4.20;;;1.80;99.90;;;;;;5019775;28;20660;-70
2023/01/11 01:59:12;;;;;;;4.55;4.03;;;1.90;99.90;;;;;;5017737;28;20259;-70
2023/01/11 02:01:48;;;;;;;6.32;4.20;;;1.90;99.90;;;;;;5017533;28;20184;-70
2023/01/11 02:04:14;;;;;;;6.55;4.55;;;2.00;99.90;;;;;;5012782;28;20189;-70
2023/01/11 02:06:41;;;;;;;5.45;4.15;;;2.00;99.90;;;;;;5016461;28;20715;-70
2023/01/11 02:09:18;;;;;;;5.93;4.10;;;2.00;99.90;;;;;;5016213;28;20189;-70
2023/01/11 02:11:45;;;;;;;4.00;3.40;;;1.90;99.90;;;;;;5020338;28;20184;-70
2023/01/11 02:14:15;;;;;;;5.40;3.70;;;1.90;99.90;;;;;;5022524;28;20177;-70
2023/01/11 02:16:40;;;;;;;3.58;3.28;;;2.00;99.90;;;;;;5021716;28;20196;-70
2023/01/11 02:19:10;;;;;;;5.65;4.05;;;2.10;99.90;;;;;;5014030;28;20180;-71
2023/01/11 02:22:01;;;;;;;6.40;3.97;;;2.20;99.90;;;;;;5014377;28;20173;-70
2023/01/11 02:24:33;;;;;;;3.92;3.58;;;2.20;99.90;;;;;;5014793;28;20220;-70
2023/01/11 02:27:46;;;;;;;4.13;3.80;;;2.30;99.90;;;;;;5014299;28;20289;-70
2023/01/11 02:30:50;;;;;;;4.43;3.75;;;2.30;99.90;;;;;;5016258;28;20201;-70
2023/01/11 02:33:24;;;;;;;5.43;3.47;;;2.20;99.90;;;;;;5011906;28;20228;-71
2023/01/11 02:35:55;;;;;;;4.05;3.75;;;2.20;99.90;;;;;;5021953;28;20179;-70
2023/01/11 02:39:01;;;;;;;4.22;3.83;;;2.20;99.90;;;;;;5022054;28;20208;-70
2023/01/11 02:45:02;;;;;;;5.10;3.60;;;2.30;99.90;;;;;;5016697;28;20189;-70
2023/01/11 02:47:49;;;;;;;4.85;3.70;;;2.30;99.90;;;;;;5016910;28;20196;-70
2023/01/11 02:50:18;;;;;;;4.57;3.50;;;2.40;99.90;;;;;;5010642;28;20623;-70
2023/01/11 02:52:46;;;;;;;5.07;3.30;;;2.40;99.90;;;;;;5017574;28;20201;-70
2023/01/11 02:55:15;;;;;;;3.72;3.33;;;2.40;99.90;;;;;;5020903;28;20188;-73
2023/01/11 02:57:42;;;;;;;3.95;3.60;;;2.30;99.90;;;;;;5017862;28;20216;-73
2023/01/11 03:00:10;;;;;;;3.40;3.10;;;2.40;99.90;;;;;;5020229;28;20189;-73
2023/01/11 03:02:36;;;;;;;3.67;3.38;;;2.40;99.90;;;;;;5020556;28;20204;-72
2023/01/11 03:05:01;;;;;;;4.90;3.30;;;2.40;99.90;;;;;;5017265;28;20215;-73
2023/01/11 03:07:47;;;;;;;5.90;3.95;;;2.30;99.90;;;;;;5018060;28;20706;-73
2023/01/11 03:10:37;;;;;;;3.67;3.33;;;2.30;99.90;;;;;;5014793;28;20200;-73
2023/01/11 03:13:22;;;;;;;4.85;3.35;;;2.30;99.90;;;;;;5017249;28;20286;-73
2023/01/11 03:16:13;;;;;;;3.20;3.00;;;2.30;99.90;;;;;;5013482;28;20191;-73
2023/01/11 03:19:16;;;;;;;4.70;3.50;;;2.30;99.90;;;;;;5016085;28;20283;-73
2023/01/11 03:21:45;;;;;;;5.03;3.25;;;2.30;99.90;;;;;;5013541;28;20196;-73
2023/01/11 03:24:23;;;;;;;3.70;3.40;;;2.20;99.90;;;;;;5016741;28;20205;-74
2023/01/11 03:27:40;;;;;;;4.72;3.85;;;2.00;99.90;;;;;;5016730;28;20198;-73
2023/01/11 03:30:14;;;;;;;4.65;3.20;;;2.00;99.90;;;;;;5011188;28;20213;-74
2023/01/11 03:32:55;;;;;;;3.97;3.65;;;2.10;99.90;;;;;;5021377;28;20251;-74
2023/01/11 03:35:23;;;;;;;3.70;3.40;;;2.20;99.90;;;;;;5020936;28;20593;-73
2023/01/11 03:38:07;;;;;;;3.63;3.33;;;2.20;99.90;;;;;;5013048;28;20548;-74
2023/01/11 03:40:38;;;;;;;4.05;3.47;;;2.10;99.90;;;;;;5014464;28;20188;-74
2023/01/11 03:43:11;;;;;;;4.88;3.85;;;2.10;99.90;;;;;;5017879;28;20201;-73
2023/01/11 03:45:45;;;;;;;5.57;3.90;;;2.20;99.90;;;;;;5014859;28;20571;-73
2023/01/11 03:48:16;;;;;;;6.38;3.70;;;2.10;99.90;;;;;;5009156;28;20181;-74
2023/01/11 03:50:43;;;;;;;5.97;4.25;;;2.10;99.90;;;;;;5017380;28;20204;-74
2023/01/11 03:53:11;;;;;;;4.57;3.50;;;2.00;99.90;;;;;;5013635;28;20706;-73
2023/01/11 03:55:44;;;;;;;4.88;3.80;;;2.00;99.90;;;;;;5011740;28;20199;-74
2023/01/11 03:58:09;;;;;;;5.53;4.20;;;2.00;99.90;;;;;;5016678;28;20295;-74
2023/01/11 04:00:36;;;;;;;4.32;3.92;;;1.90;99.90;;;;;;5014504;28;20275;-74
2023/01/11 04:03:02;;;;;;;5.10;4.57;;;1.90;99.90;;;;;;5013387;28;20208;-74
2023/01/11 04:05:28;;;;;;;4.40;4.00;;;2.00;99.90;;;;;;5016051;28;20193;-74
2023/01/11 04:07:54;;;;;;;4.60;3.65;;;1.90;99.90;;;;;;5018132;28;20177;-73
2023/01/11 04:10:19;;;;;;;5.32;3.72;;;1.90;99.90;;;;;;5012923;28;20520;-73
2023/01/11 04:12:47;;;;;;;5.25;4.15;;;1.80;99.90;;;;;;5011855;28;20213;-73
2023/01/11 04:15:13;;;;;;;4.45;4.00;;;1.80;99.90;;;;;;5010772;28;20549;-73
2023/01/11 04:17:40;;;;;;;4.30;3.90;;;1.90;99.90;;;;;;5012898;28;20240;-74
2023/01/11 04:20:07;;;;;;;5.35;4.85;;;2.00;99.90;;;;;;5012256;28;20185;-73
2023/01/11 04:22:32;;;;;;;5.30;4.20;;;2.00;99.90;;;;;;5014593;28;20602;-73
2023/01/11 04:24:58;;;;;;;4.45;4.05;;;2.00;99.90;;;;;;5012520;28;20182;-74
2023/01/11 04:27:23;;;;;;;5.80;4.28;;;2.00;99.90;;;;;;5012879;28;20177;-73
2023/01/11 04:29:49;;;;;;;6.40;4.72;;;2.00;99.90;;;;;;5011819;28;20185;-74
2023/01/11 04:32:15;;;;;;;6.80;4.68;;;2.10;99.90;;;;;;5011166;28;20284;-73
2023/01/11 04:34:40;;;;;;;4.90;4.47;;;1.90;99.90;;;;;;5005676;28;20180;-73
2023/01/11 04:37:06;;;;;;;4.95;4.25;;;1.80;99.90;;;;;;5013952;28;20228;-73
2023/01/11 04:39:31;;;;;;;4.43;4.05;;;1.90;99.90;;;;;;5014117;28;20216;-73
2023/01/11 04:44:41;;;;;;;4.95;4.30;;;2.20;99.90;;;;;;5013046;28;20188;-73
2023/01/11 04:47:06;;;;;;;4.97;4.40;;;2.00;99.90;;;;;;5008403;28;20596;-73
2023/01/11 04:49:32;;;;;;;4.75;4.32;;;1.90;99.90;;;;;;5014950;28;20173;-73
2023/01/11 04:51:58;;;;;;;4.75;4.20;;;1.90;99.90;;;;;;5012306;28;20208;-74
2023/01/11 04:54:23;;;;;;;5.22;4.47;;;2.00;99.90;;;;;;5009975;28;20182;-73
2023/01/11 04:56:49;;;;;;;5.63;5.13;;;2.00;99.90;;;;;;5011157;28;20181;-73
2023/01/11 04:59:14;;;;;;;5.82;4.47;;;2.00;99.90;;;;;;5011306;28;20671;-73
2023/01/11 05:01:40;;;;;;;4.68;4.28;;;2.00;99.90;;;;;;5013629;28;20551;-73
2023/01/11 05:04:05;;;;;;;5.28;4.40;;;2.00;99.90;;;;;;5013139;28;20185;-73
2023/01/11 05:06:31;;;;;;;5.28;4.78;;;2.10;99.90;;;;;;5011369;28;20212;-72
2023/01/11 05:08:57;;;;;;;5.03;4.43;;;2.10;99.90;;;;;;5010609;28;20189;-73
2023/01/11 05:11:22;;;;;;;4.57;4.18;;;2.10;99.90;;;;;;5011269;28;20188;-73
2023/01/11 05:13:48;;;;;;;7.18;5.25;;;2.10;99.90;;;;;;5012653;28;20207;-73
2023/01/11 05:16:13;;;;;;;6.93;6.18;;;2.10;99.90;;;;;;5012817;28;20173;-73
2023/01/11 05:18:44;;;;;;;7.20;5.28;;;2.20;99.90;;;;;;5010823;28;20577;-73
2023/01/11 05:21:12;;;;;;;6.97;5.70;;;2.20;99.90;;;;;;5006430;28;20185;-73
2023/01/11 05:23:38;;;;;;;6.63;5.63;;;2.10;99.90;;;;;;5014211;28;20300;-73
2023/01/11 05:26:06;;;;;;;6.72;6.03;;;2.00;99.90;;;;;;5012434;28;20186;-73
2023/01/11 05:28:32;;;;;;;6.20;5.35;;;2.00;99.90;;;;;;5012865;28;20185;-73
2023/01/11 05:30:58;;;;;;;5.97;5.10;;;1.90;99.90;;;;;;5012851;28;20177;-73
2023/01/11 05:33:24;;;;;;;6.07;5.15;;;2.00;99.90;;;;;;5012474;28;20563;-73
2023/01/11 05:35:49;;;;;;;6.20;5.60;;;2.10;99.90;;;;;;5013395;28;20181;-73
2023/01/11 05:38:15;;;;;;;6.95;5.93;;;2.10;99.90;;;;;;5011886;28;20282;-73
2023/01/11 05:40:41;;;;;;;5.93;5.35;;;2.10;99.90;;;;;;5013206;28;20266;-74
2023/01/11 05:43:06;;;;;;;6.82;5.20;;;2.10;99.90;;;;;;5013310;28;20263;-73
2023/01/11 05:45:32;;;;;;;6.72;6.10;;;2.20;99.90;;;;;;5019949;28;20185;-72
2023/01/11 05:47:58;;;;;;;5.80;5.30;;;2.20;99.90;;;;;;5012860;28;20181;-73
2023/01/11 05:50:24;;;;;;;7.10;6.35;;;2.20;99.90;;;;;;5015928;28;20208;-74
2023/01/11 05:52:50;;;;;;;6.45;5.88;;;2.10;99.90;;;;;;5012607;28;20212;-73
2023/01/11 05:55:16;;;;;;;6.78;5.85;;;2.10;99.90;;;;;;5013355;28;20197;-73
2023/01/11 05:57:43;;;;;;;8.80;6.10;;;2.20;99.90;;;;;;5012323;28;20259;-73
2023/01/11 06:00:09;;;;;;;7.43;6.03;;;2.20;99.90;;;;;;5011734;28;20251;-73
2023/01/11 06:02:35;;;;;;;6.25;5.75;;;2.10;99.90;;;;;;5017878;28;20209;-73
2023/01/11 06:05:01;;;;;;;5.90;5.40;;;2.10;99.90;;;;;;5008023;28;20197;-73
2023/01/11 06:07:26;;;;;;;6.38;5.53;;;2.20;99.90;;;;;;5009609;28;20269;-74
2023/01/11 06:09:52;;;;;;;7.25;6.55;;;2.20;99.90;;;;;;5010877;28;20192;-72
2023/01/11 06:12:17;;;;;;;7.07;6.13;;;2.20;99.90;;;;;;5012102;28;20679;-72
2023/01/11 06:14:43;;;;;;;6.03;5.53;;;2.20;99.90;;;;;;5005212;28;20197;-72
2023/01/11 06:17:09;;;;;;;6.32;5.70;;;2.20;99.90;;;;;;5007878;28;20343;-72
2023/01/11 06:19:34;;;;;;;6.05;5.50;;;2.20;99.90;;;;;;5012072;28;20181;-72
2023/01/11 06:22:00;;;;;;;6.43;5.93;;;2.20;99.90;;;;;;5001594;28;20746;-73
2023/01/11 06:24:25;;;;;;;7.28;6.57;;;2.20;99.90;;;;;;5006221;28;20174;-72
2023/01/11 06:26:52;;;;;;;8.60;6.45;;;2.10;99.90;;;;;;5009182;28;20649;-73
2023/01/11 06:29:18;;;;;;;7.38;6.55;;;2.10;99.90;;;;;;5013118;28;20276;-72
2023/01/11 06:31:44;;;;;;;7.15;6.53;;;2.20;99.90;;;;;;5017523;28;20318;-72
2023/01/11 06:34:09;;;;;;;7.40;6.70;;;2.20;99.90;;;;;;5017982;28;20243;-72
2023/01/11 06:36:35;;;;;;;8.00;7.10;;;2.10;99.90;;;;;;5024669;28;20256;-72
2023/01/11 06:39:00;;;;;;;7.93;7.22;;;2.00;99.90;;;;;;5017142;28;20252;-73
2023/01/11 06:41:27;;;;;;;10.77;7.10;;;2.00;99.90;;;;;;5015833;28;20303;-74
2023/01/11 06:43:53;;;;;;;8.55;7.80;;;2.10;99.90;;;;;;5021582;28;20282;-76
2023/01/11 06:46:19;;;;;;;9.60;6.90;;;2.10;99.90;;;;;;5014368;28;20204;-76
2023/01/11 06:48:45;;;;;;;10.90;6.80;;;2.30;99.90;;;;;;5020217;28;20192;-77
2023/01/11 06:51:11;;;;;;;8.10;7.25;;;2.30;99.90;;;;;;5020971;28;20648;-77
2023/01/11 06:53:38;;;;;;;7.57;6.78;;;2.40;99.90;;;;;;5015396;28;20205;-77
2023/01/11 06:56:04;;;;;;;7.80;7.10;;;2.40;99.90;;;;;;5019144;28;20193;-74
2023/01/11 06:58:29;;;;;;;7.78;7.00;;;2.40;99.90;;;;;;5025923;28;20208;-74
2023/01/11 07:00:56;;;;;;;7.22;6.43;;;2.40;99.90;;;;;;5018433;28;20197;-73
2023/01/11 07:03:23;;;;;;;9.13;8.25;;;2.50;99.90;;;;;;5018627;28;20291;-72
2023/01/11 07:05:49;;;;;;;8.85;7.90;;;2.50;99.90;;;;;;5010808;28;20268;-71
2023/01/11 07:08:15;;;;;;;8.20;7.50;;;2.40;99.90;;;;;;5020357;28;20613;-74
2023/01/11 07:10:42;;;;;;;7.88;7.07;;;2.50;99.90;;;;;;5008735;28;22212;-76
2023/01/11 07:13:09;;;;;;;7.93;7.20;;;2.60;99.90;;;;;;5015614;28;20216;-73
2023/01/11 07:15:35;;;;;;;8.65;7.82;;;2.50;99.90;;;;;;5017344;28;20300;-73
2023/01/11 07:18:01;;;;;;;7.85;7.15;;;2.50;99.90;;;;;;5017879;28;20675;-74
2023/01/11 07:20:27;;;;;;;8.20;7.40;;;2.50;99.90;;;;;;5016394;28;20550;-77
2023/01/11 07:23:00;;;;;;;8.55;7.68;;;2.50;99.90;;;;;;5016981;28;20192;-74
2023/01/11 07:25:26;;;;;;;9.02;8.10;;;2.40;99.90;;;;;;5021202;28;20648;-74
2023/01/11 07:28:04;;;;;;;8.65;7.70;;;2.40;99.90;;;;;;5011897;28;20213;-74
2023/01/11 07:30:33;;;;;;;9.27;8.32;;;2.50;99.90;;;;;;5020109;28;20184;-74
2023/01/11 07:32:59;;;;;;;9.05;8.10;;;2.50;99.90;;;;;;5013669;28;20197;-74
2023/01/11 07:35:26;;;;;;;8.90;8.07;;;2.50;99.90;;;;;;5013803;28;20651;-74
2023/01/11 07:37:51;;;;;;;9.15;7.65;;;2.50;99.90;;;;;;5033214;28;20204;-74
2023/01/11 07:40:17;;;;;;;7.85;7.05;;;2.60;99.90;;;;;;5026984;28;20180;-75
2023/01/11 07:45:33;;;;;;;8.55;7.70;;;2.70;99.90;;;;;;5014744;28;20248;-74
2023/01/11 07:47:58;;;;;;;8.82;8.02;;;2.80;99.90;;;;;;5009524;28;20236;-73
2023/01/11 07:50:24;;;;;;;9.70;7.72;;;2.70;99.90;;;;;;5005741;28;20600;-73
2023/01/11 07:52:50;;;;;;;8.85;7.97;;;2.60;99.90;;;;;;5011476;28;20215;-73
2023/01/11 07:55:16;;;;;;;7.80;7.10;;;2.60;99.90;;;;;;5009714;28;20277;-73
2023/01/11 07:57:41;;;;;;;8.25;7.55;;;2.70;99.90;;;;;;5022816;28;20209;-73
2023/01/11 08:00:09;;;;;;;8.68;7.75;;;2.80;99.90;;;;;;5022069;28;20188;-73
2023/01/11 08:02:35;;;;;;;7.75;7.10;;;2.90;99.90;;;;;;5022139;28;20283;-73
2023/01/11 08:05:00;;;;;;;8.10;7.40;;;2.90;99.90;;;;;;5013180;28;20740;-74
2023/01/11 08:07:26;;;;;;;8.27;7.47;;;3.00;99.90;;;;;;5016391;28;20189;-73
2023/01/11 08:09:51;;;;;;;7.95;7.18;;;3.00;99.90;;;;;;5024262;28;20176;-75
2023/01/11 08:15:01;;;;;;;7.40;6.80;;;3.10;99.90;;;;;;5007864;28;20603;-74
2023/01/11 08:17:27;;;;;;;7.05;6.43;;;3.10;99.90;;;;;;5020854;28;20201;-74
2023/01/11 08:19:54;;;;;;;7.32;6.63;;;3.10;99.90;;;;;;5015900;28;20173;-74
2023/01/11 08:22:20;;;;;;;7.03;6.53;;;3.20;99.90;;;;;;5012905;28;20750;-74
2023/01/11 08:24:46;;;;;;;8.15;7.45;;;3.40;99.90;;;;;;5018021;28;20185;-74
2023/01/11 08:27:11;;;;;;;7.53;6.93;;;3.40;99.90;;;;;;5013492;28;20196;-74
2023/01/11 08:29:38;;;;;;;8.05;7.25;;;3.30;99.90;;;;;;5016162;28;20240;-74
2023/01/11 08:32:04;;;;;;;6.75;6.05;;;3.30;99.90;;;;;;5011868;28;20200;-74
2023/01/11 08:34:30;;;;;;;7.35;6.75;;;3.40;99.90;;;;;;5009325;28;20244;-74
2023/01/11 08:36:56;;;;;;;7.13;6.47;;;3.40;99.90;;;;;;5017214;28;20176;-75
2023/01/11 08:39:23;;;;;;;6.43;5.82;;;3.50;99.90;;;;;;5012111;28;20192;-75
2023/01/11 08:41:49;;;;;;;8.18;7.13;;;3.50;99.90;;;;;;5008546;28;20182;-73
2023/01/11 08:44:15;;;;;;;7.07;6.47;;;3.60;99.90;;;;;;5019683;28;20176;-74
2023/01/11 08:46:42;;;;;;;6.93;6.43;;;3.60;99.90;;;;;;5016329;28;20188;-75
2023/01/11 08:49:11;;;;;;;7.90;7.20;;;3.70;99.90;;;;;;5006737;28;20194;-74
2023/01/11 08:51:40;;;;;;;6.75;6.10;;;3.60;99.90;;;;;;5020247;28;20229;-77
2023/01/11 08:54:10;;;;;;;6.57;6.05;;;3.60;99.90;;;;;;5011061;28;20192;-76
2023/01/11 08:56:35;;;;;;;6.40;5.90;;;3.60;99.90;;;;;;5019779;28;20192;-74
2023/01/11 08:59:02;;;;;;;6.82;6.15;;;3.70;99.90;;;;;;5016398;28;20201;-74
2023/01/11 09:01:28;;;;;;;6.65;6.05;;;3.80;99.90;;;;;;5021033;28;20607;-74
2023/01/11 09:03:53;;;;;;;6.30;5.80;;;3.90;99.90;;;;;;5016085;28;20196;-74
2023/01/11 09:06:20;;;;;;;7.00;6.43;;;4.00;99.90;;;;;;5015073;28;20189;-74
2023/01/11 09:08:46;;;;;;;6.38;5.88;;;4.10;99.90;;;;;;5024100;28;20231;-75
2023/01/11 09:13:56;;;;;;;6.53;6.03;;;3.90;99.90;;;;;;5013514;28;20687;-75
2023/01/11 09:16:22;;;;;;;5.88;5.47;;;4.00;99.90;;;;;;5017104;28;20177;-74
2023/01/11 09:18:47;;;;;;;5.57;5.13;;;4.20;99.90;;;;;;5019943;28;20227;-75
2023/01/11 09:21:13;;;;;;;5.47;5.03;;;4.30;99.90;;;;;;5023505;28;20196;-75
2023/01/11 09:23:39;;;;;;;5.35;4.90;;;4.40;99.90;;;;;;5022086;28;20652;-78
2023/01/11 09:26:05;;;;;;;5.80;5.30;;;4.40;99.90;;;;;;5031763;28;20180;-75
2023/01/11 09:28:31;;;;;;;6.80;6.25;;;4.50;99.90;;;;;;5020487;28;20301;-74
2023/01/11 09:30:56;;;;;;;6.40;5.72;;;4.60;99.90;;;;;;5025052;28;20587;-75
2023/01/11 09:33:22;;;;;;;5.90;5.50;;;4.70;99.90;;;;;;5022941;28;20201;-73
2023/01/11 09:35:49;;;;;;;5.80;5.30;;;4.60;99.90;;;;;;5031531;28;20636;-75
2023/01/11 09:38:15;;;;;;;5.80;4.88;;;4.60;99.90;;;;;;5016288;28;20642;-75
2023/01/11 09:41:16;;;;;;;6.45;5.95;;;4.60;99.90;;;;;;5017711;28;20199;-77
2023/01/11 09:43:51;;;;;;;5.75;5.35;;;4.60;99.90;;;;;;5010641;28;20296;-75
2023/01/11 09:46:18;;;;;;;6.82;6.13;;;4.90;99.90;;;;;;5014716;28;20204;-76
2023/01/11 09:48:49;;;;;;;5.10;4.70;;;4.90;99.90;;;;;;5019874;28;20189;-74
2023/01/11 09:51:17;;;;;;;6.65;5.30;;;5.00;99.90;;;;;;5008670;28;20195;-73
2023/01/11 09:53:49;;;;;;;5.40;5.00;;;5.10;99.90;;;;;;5017850;28;20192;-74
2023/01/11 09:56:23;;;;;;;6.28;5.78;;;5.20;99.90;;;;;;5013797;28;20601;-79
2023/01/11 09:59:25;;;;;;;5.85;5.35;;;5.20;99.90;;;;;;5009490;28;20196;-74
2023/01/11 10:02:13;;;;;;;6.43;5.85;;;5.20;99.90;;;;;;5006598;28;20173;-73
2023/01/11 10:04:48;;;;;;;5.95;5.45;;;5.30;99.90;;;;;;5010863;28;20524;-73
2023/01/11 10:07:32;;;;;;;5.88;5.38;;;5.40;99.90;;;;;;5018858;28;20169;-74
2023/01/11 10:10:42;;;;;;;5.25;4.75;;;5.50;99.90;;;;;;5012398;28;20169;-74
2023/01/11 10:13:32;;;;;;;5.80;5.40;;;5.60;99.90;;;;;;5012395;28;20292;-74
2023/01/11 10:16:12;;;;;;;5.40;4.95;;;5.50;99.90;;;;;;4997721;28;20221;-74
2023/01/11 10:18:57;;;;;;;5.57;4.82;;;5.40;99.90;;;;;;5028072;28;20633;-74
2023/01/11 10:21:34;;;;;;;5.65;5.25;;;5.30;99.90;;;;;;5008478;28;20229;-74
2023/01/11 10:24:39;;;;;;;5.05;4.65;;;5.30;99.90;;;;;;5021482;28;20185;-74
2023/01/11 10:27:26;;;;;;;4.97;4.60;;;5.50;99.90;;;;;;5016570;28;20192;-74
2023/01/11 10:30:12;;;;;;;5.60;4.80;;;5.60;99.90;;;;;;5021303;28;20272;-73
2023/01/11 10:32:56;;;;;;;5.05;4.60;;;5.80;99.90;;;;;;5014217;28;20243;-74
2023/01/11 10:35:35;;;;;;;5.18;4.60;;;5.90;99.90;;;;;;5022217;28;20655;-74
2023/01/11 10:41:14;;;;;;;4.85;4.50;;;6.30;99.90;;;;;;5024887;28;20188;-74
2023/01/11 10:43:44;;;;;;;4.63;4.22;;;6.30;99.90;;;;;;5014153;28;20198;-74
2023/01/11 10:46:16;;;;;;;5.40;4.30;;;6.40;99.90;;;;;;5015041;28;20179;-74
2023/01/11 10:48:44;;;;;;;3.97;3.67;;;6.40;99.90;;;;;;5014112;28;20193;-74
2023/01/11 10:51:28;;;;;;;4.30;3.90;;;6.20;99.90;;;;;;5021529;28;20181;-74
2023/01/11 10:54:12;;;;;;;4.07;3.83;;;6.20;99.90;;;;;;5013117;28;20205;-76
2023/01/11 10:57:18;;;;;;;4.00;3.70;;;6.20;99.90;;;;;;5019013;28;20177;-75
2023/01/11 11:00:16;;;;;;;3.58;3.28;;;6.30;99.90;;;;;;5016177;28;20192;-76
2023/01/11 11:02:51;;;;;;;4.10;3.80;;;6.50;99.90;;;;;;5023740;28;20296;-75
2023/01/11 11:05:16;;;;;;;3.80;3.53;;;6.80;99.90;;;;;;5023382;28;20257;-75
2023/01/11 11:07:49;;;;;;;5.15;3.90;;;7.00;99.90;;;;;;5013288;28;20185;-75
2023/01/11 11:10:44;;;;;;;4.25;3.92;;;7.20;99.90;;;;;;5012334;28;20173;-80
2023/01/11 11:13:18;;;;;;;4.43;4.03;;;7.30;99.90;;;;;;5013259;28;20204;-75
2023/01/11 11:16:06;;;;;;;4.68;4.38;;;7.40;99.90;;;;;;5015259;28;20267;-75
2023/01/11 11:18:32;;;;;;;3.80;3.58;;;7.50;99.90;;;;;;5016411;28;20216;-75
2023/01/11 11:21:03;;;;;;;4.10;3.80;;;7.30;99.90;;;;;;5021491;28;20176;-74
2023/01/11 11:23:30;;;;;;;4.18;3.88;;;7.00;99.90;;;;;;5010584;28;20201;-77
2023/01/11 11:26:00;;;;;;;4.03;3.63;;;6.90;99.90;;;;;;5029482;28;20266;-76
2023/01/11 11:28:29;;;;;;;3.95;3.67;;;6.80;99.90;;;;;;5024141;28;20191;-76
2023/01/11 11:30:58;;;;;;;4.40;4.10;;;7.10;99.90;;;;;;5020463;28;20177;-76
2023/01/11 11:33:34;;;;;;;3.65;3.42;;;7.40;99.90;;;;;;5019891;28;20282;-76
2023/01/11 11:36:03;;;;;;;4.10;3.80;;;7.30;99.90;;;;;;5009872;28;20177;-76
2023/01/11 11:38:31;;;;;;;4.32;4.00;;;7.30;99.90;;;;;;5021007;28;20215;-76
2023/01/11 11:41:03;;;;;;;4.50;4.10;;;7.20;99.90;;;;;;5026958;28;20267;-76
2023/01/11 11:43:31;;;;;;;4.30;3.90;;;6.90;99.90;;;;;;5024824;28;20185;-76
2023/01/11 11:45:59;;;;;;;4.70;4.20;;;6.70;99.90;;;;;;5019642;28;20247;-76
2023/01/11 11:48:27;;;;;;;3.97;3.67;;;6.60;99.90;;;;;;5018994;28;20186;-76
2023/01/11 11:50:56;;;;;;;4.40;4.10;;;6.50;99.90;;;;;;5002340;28;20182;-76
2023/01/11 11:54:02;;;;;;;4.13;3.75;;;6.50;99.90;;;;;;5017319;28;20747;-76
2023/01/11 11:56:40;;;;;;;4.22;3.83;;;6.60;99.90;;;;;;5024971;28;20267;-77
2023/01/11 11:59:09;;;;;;;4.35;4.05;;;6.60;99.90;;;;;;5023717;28;20239;-75
2023/01/11 12:01:38;;;;;;;4.38;4.05;;;6.70;99.90;;;;;;5012628;28;20181;-75
2023/01/11 12:04:21;;;;;;;4.53;4.13;;;6.70;99.90;;;;;;5012335;28;20555;-77
2023/01/11 12:07:10;;;;;;;4.07;3.78;;;6.80;99.90;;;;;;5018295;28;20181;-76
2023/01/11 12:09:40;;;;;;;6.22;4.00;;;6.90;99.90;;;;;;5012260;28;20222;-80
2023/01/11 12:12:13;;;;;;;4.32;3.92;;;6.80;99.90;;;;;;5026343;28;20710;-79
2023/01/11 12:14:38;;;;;;;5.10;4.65;;;6.80;99.90;;;;;;5000807;28;20193;-75
2023/01/11 12:17:23;;;;;;;3.97;3.78;;;6.70;99.90;;;;;;5010370;28;20182;-74
2023/01/11 12:19:48;;;;;;;4.45;4.15;;;6.60;99.90;;;;;;5015083;28;20180;-74
2023/01/11 12:22:14;;;;;;;4.35;4.05;;;6.70;99.90;;;;;;5017815;28;20206;-77
2023/01/11 12:24:39;;;;;;;3.92;3.72;;;6.70;99.90;;;;;;5019350;28;20181;-77
2023/01/11 12:27:05;;;;;;;4.82;4.43;;;6.80;99.90;;;;;;5019201;28;20220;-77
2023/01/11 12:29:38;;;;;;;4.97;4.57;;;6.90;99.90;;;;;;5016955;28;20232;-76
2023/01/11 12:32:18;;;;;;;5.28;4.93;;;6.90;99.90;;;;;;5007722;28;20204;-77
2023/01/11 12:35:03;;;;;;;4.45;4.15;;;6.90;99.90;;;;;;5004650;28;20181;-77
2023/01/11 12:37:53;;;;;;;4.78;4.40;;;6.80;99.90;;;;;;5004944;28;20232;-77
2023/01/11 12:40:47;;;;;;;4.43;4.07;;;6.60;99.90;;;;;;5010299;28;20174;-76
2023/01/11 12:43:36;;;;;;;4.57;4.28;;;6.50;99.90;;;;;;5008326;28;20200;-75
2023/01/11 12:46:15;;;;;;;4.57;3.95;;;6.50;99.90;;;;;;5011328;28;20192;-76
2023/01/11 12:49:14;;;;;;;4.53;4.13;;;6.50;99.90;;;;;;5009322;28;20185;-76
2023/01/11 12:52:19;;;;;;;4.60;4.13;;;6.40;99.90;;;;;;5013379;28;20239;-76
2023/01/11 12:54:46;;;;;;;4.55;4.10;;;6.40;99.90;;;;;;5009802;28;20183;-76
2023/01/11 12:57:27;;;;;;;4.82;4.50;;;6.50;99.90;;;;;;5019558;28;20173;-76
2023/01/11 13:00:13;;;;;;;5.10;4.80;;;6.30;99.90;;;;;;5014323;28;20202;-76
2023/01/11 13:02:50;;;;;;;4.63;4.32;;;6.20;99.90;;;;;;5015901;28;20560;-76
2023/01/11 13:05:37;;;;;;;5.35;4.95;;;6.20;99.90;;;;;;5011825;28;20254;-76
2023/01/11 13:08:17;;;;;;;6.03;4.55;;;5.90;99.90;;;;;;5011148;28;20177;-76
2023/01/11 13:10:52;;;;;;;5.13;4.72;;;5.90;99.90;;;;;;5012264;28;20181;-76
2023/01/11 13:13:27;;;;;;;4.80;4.40;;;5.90;99.90;;;;;;5008876;28;20196;-76
2023/01/11 13:16:15;;;;;;;5.57;5.13;;;5.90;99.90;;;;;;5012124;28;20184;-76
2023/01/11 13:18:57;;;;;;;4.97;4.57;;;5.80;99.90;;;;;;5012873;28;20287;-75
2023/01/11 13:21:34;;;;;;;5.60;5.10;;;5.80;99.90;;;;;;5011253;28;20184;-75
2023/01/11 13:24:33;;;;;;;5.43;5.03;;;5.80;99.90;;;;;;5008532;28;20168;-75
2023/01/11 13:27:02;;;;;;;5.05;4.72;;;5.70;99.90;;;;;;5003733;28;20189;-76
2023/01/11 13:29:35;;;;;;;6.28;5.28;;;5.60;99.90;;;;;;5011114;28;20550;-75
2023/01/11 13:32:11;;;;;;;6.03;5.53;;;5.70;99.90;;;;;;5013824;28;20252;-76
2023/01/11 13:34:48;;;;;;;6.40;5.88;;;5.70;99.90;;;;;;5013730;28;20177;-76
2023/01/11 13:37:38;;;;;;;6.18;5.57;;;5.70;99.90;;;;;;5010782;28;20275;-76
2023/01/11 13:40:04;;;;;;;6.55;5.95;;;5.60;99.90;;;;;;5008149;28;20679;-76
2023/01/11 13:42:35;;;;;;;6.35;5.88;;;5.60;99.90;;;;;;5014946;28;20205;-76
2023/01/11 13:45:17;;;;;;;6.60;6.00;;;5.60;99.90;;;;;;5019042;28;20181;-75